NOZ592W ESSB-ENGM
Flight info
| Callsign | NOZ592W |
|---|---|
| Flight time | N/A |
| Altitude | 28000 |
| Route | ARS N623 ESEBA |
| Aircraft | B738/M-SDE2E3FGHIRWXY/LB1 |
Departure
| Time | N/A |
|---|---|
| Airport | Stockholm-Bromma Airport (ESSB) |
Arrival
| Time | 2026-05-01 15:33 |
|---|---|
| Airport | Oslo-Gardermoen International Airport (ENGM) |
| Time | Latitude | Longitude | Altitude | Speed | Heading |
|---|---|---|---|---|---|
| 2026-05-01 15:12 | 60.01630 | 12.60792 | 17413 ft | 281 kts | 289° |
| 2026-05-01 15:12 | 60.02390 | 12.57214 | 17056 ft | 276 kts | 289° |
| 2026-05-01 15:13 | 60.04581 | 12.46820 | 15983 ft | 272 kts | 292° |
| 2026-05-01 15:14 | 60.07408 | 12.41477 | 15485 ft | 292 kts | 321° |
| 2026-05-01 15:14 | 60.09175 | 12.39423 | 15236 ft | 293 kts | 322° |
| 2026-05-01 15:14 | 60.12602 | 12.35255 | 14746 ft | 289 kts | 320° |
| 2026-05-01 15:15 | 60.15943 | 12.30882 | 14250 ft | 284 kts | 318° |
| 2026-05-01 15:15 | 60.19228 | 12.26509 | 13762 ft | 283 kts | 318° |
| 2026-05-01 15:16 | 60.22487 | 12.22171 | 13268 ft | 281 kts | 319° |
| 2026-05-01 15:16 | 60.25743 | 12.17834 | 12764 ft | 279 kts | 319° |
| 2026-05-01 15:17 | 60.28989 | 12.13496 | 12258 ft | 278 kts | 319° |
| 2026-05-01 15:18 | 60.33729 | 12.07149 | 11498 ft | 268 kts | 319° |
| 2026-05-01 15:18 | 60.35275 | 12.05091 | 11241 ft | 262 kts | 320° |
| 2026-05-01 15:19 | 60.40636 | 12.03026 | 10492 ft | 263 kts | 345° |
| 2026-05-01 15:19 | 60.43785 | 12.00538 | 10058 ft | 239 kts | 325° |
| 2026-05-01 15:19 | 60.45296 | 11.99124 | 10060 ft | 243 kts | 329° |
| 2026-05-01 15:20 | 60.48528 | 11.96792 | 10055 ft | 249 kts | 333° |
| 2026-05-01 15:20 | 60.50160 | 11.95700 | 10062 ft | 248 kts | 333° |
| 2026-05-01 15:20 | 60.51688 | 11.94220 | 9872 ft | 238 kts | 311° |
| 2026-05-01 15:21 | 60.52501 | 11.91562 | 9640 ft | 219 kts | 278° |
| 2026-05-01 15:21 | 60.52498 | 11.88510 | 9419 ft | 217 kts | 259° |
| 2026-05-01 15:21 | 60.52018 | 11.85586 | 9176 ft | 217 kts | 247° |
| 2026-05-01 15:21 | 60.51355 | 11.82888 | 8940 ft | 217 kts | 246° |
| 2026-05-01 15:22 | 60.50109 | 11.77321 | 8461 ft | 216 kts | 249° |
| 2026-05-01 15:22 | 60.49521 | 11.74544 | 8222 ft | 216 kts | 248° |
| 2026-05-01 15:22 | 60.48748 | 11.72013 | 8053 ft | 212 kts | 230° |
| 2026-05-01 15:23 | 60.47649 | 11.70008 | 7851 ft | 216 kts | 225° |
| 2026-05-01 15:23 | 60.46524 | 11.68037 | 7591 ft | 213 kts | 227° |
| 2026-05-01 15:23 | 60.45439 | 11.65985 | 7343 ft | 209 kts | 228° |
| 2026-05-01 15:23 | 60.44401 | 11.63945 | 7098 ft | 207 kts | 228° |
| 2026-05-01 15:24 | 60.43387 | 11.61945 | 6827 ft | 206 kts | 228° |
| 2026-05-01 15:24 | 60.42352 | 11.59907 | 6500 ft | 205 kts | 227° |
| 2026-05-01 15:24 | 60.41340 | 11.57926 | 6223 ft | 202 kts | 227° |
| 2026-05-01 15:24 | 60.40341 | 11.55975 | 5988 ft | 197 kts | 228° |
| 2026-05-01 15:25 | 60.39366 | 11.54070 | 5757 ft | 193 kts | 228° |
| 2026-05-01 15:25 | 60.38418 | 11.52216 | 5534 ft | 189 kts | 227° |
| 2026-05-01 15:25 | 60.37488 | 11.50400 | 5318 ft | 185 kts | 227° |
| 2026-05-01 15:25 | 60.36579 | 11.48627 | 5110 ft | 181 kts | 227° |
| 2026-05-01 15:26 | 60.35683 | 11.46881 | 4898 ft | 177 kts | 227° |
| 2026-05-01 15:26 | 60.34804 | 11.45168 | 4700 ft | 173 kts | 227° |
| 2026-05-01 15:26 | 60.33944 | 11.43494 | 4500 ft | 170 kts | 227° |
| 2026-05-01 15:26 | 60.33108 | 11.41867 | 4307 ft | 167 kts | 227° |
| 2026-05-01 15:27 | 60.32272 | 11.40242 | 4121 ft | 163 kts | 227° |
| 2026-05-01 15:27 | 60.31473 | 11.38694 | 4036 ft | 161 kts | 227° |
| 2026-05-01 15:27 | 60.30670 | 11.37134 | 4017 ft | 155 kts | 227° |
| 2026-05-01 15:28 | 60.29841 | 11.33383 | 3883 ft | 156 kts | 272° |
| 2026-05-01 15:28 | 60.30098 | 11.31247 | 3725 ft | 156 kts | 281° |
| 2026-05-01 15:28 | 60.30385 | 11.29171 | 3582 ft | 155 kts | 279° |
| 2026-05-01 15:29 | 60.30917 | 11.24929 | 3328 ft | 155 kts | 277° |
| 2026-05-01 15:29 | 60.31034 | 11.22780 | 3092 ft | 153 kts | 264° |
| 2026-05-01 15:29 | 60.30604 | 11.18724 | 2684 ft | 148 kts | 246° |
| 2026-05-01 15:30 | 60.29533 | 11.15380 | 2342 ft | 132 kts | 227° |
| 2026-05-01 15:31 | 60.26434 | 11.11998 | 1712 ft | 131 kts | 199° |
| 2026-05-01 15:31 | 60.24678 | 11.10941 | 1358 ft | 134 kts | 199° |
| 2026-05-01 15:32 | 60.22884 | 11.09909 | 997 ft | 134 kts | 198° |
| 2026-05-01 15:32 | 60.21125 | 11.08887 | 699 ft | 123 kts | 198° |
| 2026-05-01 15:33 | 60.19810 | 11.08135 | 684 ft | 22 kts | 192° |
| 2026-05-01 15:34 | 60.19581 | 11.08221 | 679 ft | 0 kts | 111° |